Time;durP1;ratioP1;P1;durP2;ratioP2;P2;SDS_P1;SDS_P2;PMS_P1;PMS_P2;Temp;Humidity;BMP_temperature;BMP_pressure;BME280_temperature;BME280_humidity;BME280_pressure;Samples;Min_cycle;Max_cycle;Signal;HPM_P1;HPM_P2
2022/10/03 00:01:00;;;;;;;3.15;1.25;;;;;;;;;;6276533;22;20453;-75
2022/10/03 00:03:28;;;;;;;2.75;1.42;;;;;;;;;;6276284;22;20015;-75
2022/10/03 00:06:14;;;;;;;2.55;1.67;;;;;;;;;;6249757;22;20514;-75
2022/10/03 00:08:56;;;;;;;2.15;1.55;;;;;;;;;;6276256;22;20045;-74
2022/10/03 00:11:36;;;;;;;4.45;1.40;;;;;;;;;;6276329;22;20012;-74
2022/10/03 00:14:04;;;;;;;3.15;1.80;;;;;;;;;;6249648;22;20016;-74
2022/10/03 00:16:50;;;;;;;4.28;1.50;;;;;;;;;;6276235;22;20011;-75
2022/10/03 00:19:17;;;;;;;3.33;1.35;;;;;;;;;;6276283;22;20015;-76
2022/10/03 00:21:54;;;;;;;3.90;2.38;;;;;;;;;;6275972;22;20039;-75
2022/10/03 00:24:21;;;;;;;2.60;1.50;;;;;;;;;;6276300;22;20069;-75
2022/10/03 00:26:48;;;;;;;4.88;1.50;;;;;;;;;;6275711;22;20111;-75
2022/10/03 00:29:35;;;;;;;3.80;1.38;;;;;;;;;;6249108;22;20517;-75
2022/10/03 00:32:09;;;;;;;4.45;1.35;;;;;;;;;;6249094;22;20023;-74
2022/10/03 00:34:42;;;;;;;4.00;1.50;;;;;;;;;;6276169;22;20020;-76
2022/10/03 00:37:29;;;;;;;5.15;1.77;;;;;;;;;;6249023;22;20025;-75
2022/10/03 00:40:15;;;;;;;2.90;1.38;;;;;;;;;;6276263;22;20022;-75
2022/10/03 00:43:01;;;;;;;1.83;1.40;;;;;;;;;;6249267;22;20441;-75
2022/10/03 00:46:04;;;;;;;2.97;1.63;;;;;;;;;;6276096;22;20088;-75
2022/10/03 00:48:51;;;;;;;4.97;1.73;;;;;;;;;;6152410;23;20022;-76
2022/10/03 00:51:18;;;;;;;3.88;1.50;;;;;;;;;;6269066;22;20094;-75
2022/10/03 00:53:46;;;;;;;3.25;1.58;;;;;;;;;;6276102;22;20043;-75
2022/10/03 00:56:16;;;;;;;4.10;1.75;;;;;;;;;;6275988;22;20019;-76
2022/10/03 00:59:02;;;;;;;4.43;1.55;;;;;;;;;;6275948;22;20023;-75
2022/10/03 01:01:41;;;;;;;3.72;1.77;;;;;;;;;;6275988;22;20015;-75
2022/10/03 01:04:18;;;;;;;3.00;1.98;;;;;;;;;;6275993;22;20388;-75
2022/10/03 01:06:58;;;;;;;4.38;1.60;;;;;;;;;;6275912;22;20069;-75
2022/10/03 01:09:29;;;;;;;2.78;1.38;;;;;;;;;;6249115;22;20094;-76
2022/10/03 01:11:59;;;;;;;3.70;1.50;;;;;;;;;;6275960;22;20442;-76
2022/10/03 01:14:32;;;;;;;3.95;1.85;;;;;;;;;;6275939;22;20453;-76
2022/10/03 01:17:18;;;;;;;5.65;1.80;;;;;;;;;;6275774;22;20338;-76
2022/10/03 01:19:49;;;;;;;3.20;1.63;;;;;;;;;;6275881;22;20138;-76
2022/10/03 01:22:35;;;;;;;2.88;1.55;;;;;;;;;;6275953;22;20019;-76
2022/10/03 01:25:25;;;;;;;3.97;1.52;;;;;;;;;;6248675;22;20030;-76
2022/10/03 01:30:57;;;;;;;2.45;1.67;;;;;;;;;;6253149;22;20012;-76
2022/10/03 01:33:27;;;;;;;3.17;1.50;;;;;;;;;;6275973;22;20094;-76
2022/10/03 01:35:55;;;;;;;2.78;1.80;;;;;;;;;;6248742;22;20058;-76
2022/10/03 01:38:41;;;;;;;4.32;1.73;;;;;;;;;;6276367;22;20315;-76
2022/10/03 01:41:37;;;;;;;6.03;1.83;;;;;;;;;;6278085;22;20012;-76
2022/10/03 01:49:57;;;;;;;;;;;;;;;;;;6265049;22;20082;-74
2022/10/03 01:52:36;;;;;;;3.97;1.77;;;;;;;;;;6247199;23;19923;-74
2022/10/03 01:55:23;;;;;;;4.65;1.67;;;;;;;;;;6247052;23;20020;-74
2022/10/03 01:58:09;;;;;;;3.33;1.60;;;;;;;;;;6247031;23;20446;-74
2022/10/03 02:00:47;;;;;;;1.67;1.38;;;;;;;;;;6247223;23;20020;-76
2022/10/03 02:03:27;;;;;;;3.45;2.00;;;;;;;;;;6247127;23;20020;-76
2022/10/03 02:05:54;;;;;;;4.97;1.60;;;;;;;;;;6247282;23;20497;-77
2022/10/03 02:08:22;;;;;;;5.90;1.80;;;;;;;;;;6247405;23;20463;-77
2022/10/03 02:11:00;;;;;;;3.90;1.60;;;;;;;;;;6247356;23;20012;-77
2022/10/03 02:13:36;;;;;;;4.38;2.15;;;;;;;;;;6247591;23;20032;-73
2022/10/03 02:16:09;;;;;;;17.52;9.02;;;;;;;;;;6220778;23;20020;-77
2022/10/03 02:18:46;;;;;;;9.30;5.55;;;;;;;;;;6247553;23;20183;-76
2022/10/03 02:21:14;;;;;;;6.18;2.40;;;;;;;;;;6247407;23;20012;-76
2022/10/03 02:23:44;;;;;;;16.85;10.00;;;;;;;;;;6247704;23;20019;-76
2022/10/03 02:26:20;;;;;;;5.82;3.42;;;;;;;;;;6247445;23;20019;-76
2022/10/03 02:28:58;;;;;;;2.80;1.85;;;;;;;;;;6247539;23;20020;-76
2022/10/03 02:31:44;;;;;;;4.25;2.25;;;;;;;;;;6247769;23;20016;-77
2022/10/03 02:34:30;;;;;;;4.22;2.47;;;;;;;;;;6247781;23;20638;-77
2022/10/03 02:37:07;;;;;;;4.55;2.30;;;;;;;;;;6247356;23;20027;-76
2022/10/03 02:39:38;;;;;;;14.30;8.88;;;;;;;;;;6247191;23;20237;-76
2022/10/03 02:42:28;;;;;;;7.30;4.90;;;;;;;;;;6247698;23;20020;-76
2022/10/03 02:45:14;;;;;;;12.10;5.72;;;;;;;;;;6247286;23;20024;-76
2022/10/03 02:47:42;;;;;;;7.60;3.92;;;;;;;;;;6247377;23;20013;-77
2022/10/03 02:50:09;;;;;;;4.72;2.35;;;;;;;;;;6246968;23;20054;-76
2022/10/03 02:52:36;;;;;;;7.00;2.78;;;;;;;;;;6220796;23;20020;-77
2022/10/03 02:55:22;;;;;;;9.63;6.53;;;;;;;;;;6247362;23;20047;-77
2022/10/03 02:57:52;;;;;;;9.68;4.50;;;;;;;;;;6247067;23;20028;-77
2022/10/03 03:00:29;;;;;;;4.00;1.85;;;;;;;;;;6246556;23;20016;-76
2022/10/03 03:03:14;;;;;;;9.15;5.90;;;;;;;;;;6246617;23;20335;-77
2022/10/03 03:06:03;;;;;;;4.60;2.25;;;;;;;;;;6246311;23;20442;-73
2022/10/03 03:08:50;;;;;;;4.60;2.60;;;;;;;;;;6246074;23;20016;-77
2022/10/03 03:11:32;;;;;;;3.47;1.92;;;;;;;;;;6246199;23;20095;-77
2022/10/03 03:14:08;;;;;;;5.53;2.90;;;;;;;;;;6246040;23;20017;-76
2022/10/03 03:16:52;;;;;;;4.78;2.22;;;;;;;;;;6246087;23;20016;-77
2022/10/03 03:19:19;;;;;;;5.90;2.00;;;;;;;;;;6245986;23;20050;-77
2022/10/03 03:21:47;;;;;;;4.32;1.88;;;;;;;;;;6219050;23;20020;-77
2022/10/03 03:24:37;;;;;;;5.05;2.42;;;;;;;;;;6246227;23;20020;-77
2022/10/03 03:27:05;;;;;;;3.83;2.10;;;;;;;;;;6178434;23;20016;-76
2022/10/03 03:29:38;;;;;;;2.88;1.70;;;;;;;;;;6245624;23;20095;-76
2022/10/03 03:32:27;;;;;;;4.80;2.00;;;;;;;;;;6245813;23;20542;-77
2022/10/03 03:35:09;;;;;;;3.88;1.60;;;;;;;;;;6245740;23;20020;-77
2022/10/03 03:37:48;;;;;;;3.70;2.17;;;;;;;;;;6245775;23;20016;-77
2022/10/03 03:40:22;;;;;;;6.18;2.15;;;;;;;;;;6245730;23;20020;-76
2022/10/03 03:42:52;;;;;;;7.85;2.40;;;;;;;;;;6245884;23;20012;-76
2022/10/03 03:45:29;;;;;;;6.32;2.97;;;;;;;;;;6218803;23;20027;-76
2022/10/03 03:48:09;;;;;;;6.78;2.05;;;;;;;;;;6245936;23;20063;-76
2022/10/03 03:50:56;;;;;;;4.78;2.38;;;;;;;;;;6218751;23;20024;-75
2022/10/03 03:53:23;;;;;;;5.05;2.17;;;;;;;;;;6245431;23;20024;-75
2022/10/03 03:55:55;;;;;;;6.78;2.70;;;;;;;;;;6245747;23;20016;-76
2022/10/03 03:58:40;;;;;;;5.80;2.20;;;;;;;;;;6245660;23;20019;-75
2022/10/03 04:01:27;;;;;;;6.43;2.10;;;;;;;;;;6245677;23;20016;-74
2022/10/03 04:04:06;;;;;;;4.72;2.08;;;;;;;;;;6245709;23;20016;-76
2022/10/03 04:06:37;;;;;;;5.43;2.70;;;;;;;;;;6245832;23;20016;-75
2022/10/03 04:09:16;;;;;;;6.25;2.40;;;;;;;;;;6218986;23;20092;-75
2022/10/03 04:11:48;;;;;;;4.38;2.50;;;;;;;;;;6245576;23;20035;-76
2022/10/03 04:14:22;;;;;;;7.45;2.92;;;;;;;;;;6245105;23;20024;-76
2022/10/03 04:19:38;;;;;;;4.10;2.25;;;;;;;;;;6244859;23;20395;-75
2022/10/03 04:22:25;;;;;;;6.70;2.80;;;;;;;;;;6245081;23;20101;-73
2022/10/03 04:25:05;;;;;;;5.85;2.58;;;;;;;;;;6244526;23;20036;-74
2022/10/03 04:27:36;;;;;;;7.45;2.70;;;;;;;;;;6244627;23;20071;-72
2022/10/03 04:30:04;;;;;;;6.13;3.25;;;;;;;;;;6244790;23;20446;-73
2022/10/03 04:32:40;;;;;;;6.53;3.22;;;;;;;;;;6245100;23;20012;-73
2022/10/03 04:35:08;;;;;;;5.15;3.47;;;;;;;;;;6245115;23;20050;-73
2022/10/03 04:37:35;;;;;;;10.65;5.45;;;;;;;;;;6245304;23;20012;-76
2022/10/03 04:40:15;;;;;;;8.10;3.40;;;;;;;;;;6245340;23;20020;-73
2022/10/03 04:42:46;;;;;;;8.30;4.70;;;;;;;;;;6243406;23;20020;-73
2022/10/03 04:45:16;;;;;;;7.13;3.80;;;;;;;;;;6243996;23;20023;-75
2022/10/03 04:47:44;;;;;;;12.05;6.10;;;;;;;;;;6243967;23;20016;-74
2022/10/03 04:50:11;;;;;;;7.28;3.40;;;;;;;;;;6244167;23;20023;-74
2022/10/03 04:52:38;;;;;;;6.93;2.92;;;;;;;;;;6218177;23;20110;-73
2022/10/03 04:55:15;;;;;;;17.52;9.98;;;;;;;;;;6243882;23;20069;-74
2022/10/03 04:57:52;;;;;;;9.73;3.40;;;;;;;;;;6244168;23;20038;-76
2022/10/03 05:00:40;;;;;;;13.40;5.07;;;;;;;;;;6245134;23;20046;-76
2022/10/03 05:03:23;;;;;;;7.78;4.03;;;;;;;;;;6245359;23;20047;-76
2022/10/03 05:05:54;;;;;;;11.10;6.38;;;;;;;;;;6245439;23;20434;-76
2022/10/03 05:08:32;;;;;;;8.43;4.25;;;;;;;;;;6244989;23;20088;-76
2022/10/03 05:11:04;;;;;;;7.80;4.45;;;;;;;;;;6245236;23;20465;-76
2022/10/03 05:13:38;;;;;;;6.38;3.55;;;;;;;;;;6245186;23;20040;-75
2022/10/03 05:16:07;;;;;;;10.30;3.88;;;;;;;;;;6245306;23;20342;-75
2022/10/03 05:18:41;;;;;;;14.35;6.07;;;;;;;;;;6245092;23;20016;-74
2022/10/03 05:21:24;;;;;;;11.43;5.55;;;;;;;;;;6245132;23;20039;-75
2022/10/03 05:24:03;;;;;;;10.73;3.92;;;;;;;;;;6218846;23;20016;-77
2022/10/03 05:26:33;;;;;;;8.35;2.95;;;;;;;;;;6245369;23;20041;-77
2022/10/03 05:29:16;;;;;;;;;;;;;;;;;;6245740;23;20502;-77
2022/10/03 05:32:06;;;;;;;8.55;3.25;;;;;;;;;;6245373;23;19954;-77
2022/10/03 05:34:52;;;;;;;8.82;3.45;;;;;;;;;;6245091;23;20507;-77
2022/10/03 05:37:37;;;;;;;6.05;2.92;;;;;;;;;;6245260;23;20095;-77
2022/10/03 05:40:19;;;;;;;9.00;3.03;;;;;;;;;;6218676;23;20022;-77
2022/10/03 05:42:51;;;;;;;7.45;3.58;;;;;;;;;;6245484;23;20095;-77
2022/10/03 05:45:20;;;;;;;10.02;5.72;;;;;;;;;;6218956;23;20020;-78
2022/10/03 05:47:54;;;;;;;9.13;5.13;;;;;;;;;;6245288;23;20047;-78
2022/10/03 05:50:27;;;;;;;13.35;5.22;;;;;;;;;;6244975;23;20019;-78
2022/10/03 05:53:19;;;;;;;10.70;4.57;;;;;;;;;;6245572;23;20024;-79
2022/10/03 05:55:50;;;;;;;11.35;4.07;;;;;;;;;;6245267;23;20450;-79
2022/10/03 05:58:19;;;;;;;8.20;4.15;;;;;;;;;;6245207;23;20385;-78
2022/10/03 06:25:13;;;;;;;10.40;4.15;;;;;;;;;;6232440;22;20031;-78
2022/10/03 06:27:40;;;;;;;7.85;3.70;;;;;;;;;;6254770;23;20341;-78
2022/10/03 06:30:26;;;;;;;9.20;3.80;;;;;;;;;;6254338;23;20027;-78
2022/10/03 06:33:12;;;;;;;7.93;3.70;;;;;;;;;;6254349;23;20051;-77
2022/10/03 06:35:58;;;;;;;8.57;3.72;;;;;;;;;;6254406;23;20079;-77
2022/10/03 06:38:35;;;;;;;9.65;3.80;;;;;;;;;;6254399;23;20016;-77
2022/10/03 06:41:21;;;;;;;6.72;3.38;;;;;;;;;;6254346;23;20020;-78
2022/10/03 06:43:48;;;;;;;10.38;3.42;;;;;;;;;;6254300;23;20023;-78
2022/10/03 06:46:22;;;;;;;4.30;2.80;;;;;;;;;;6254596;23;20337;-78
2022/10/03 06:48:52;;;;;;;5.85;3.13;;;;;;;;;;6254178;23;20062;-79
2022/10/03 06:51:31;;;;;;;6.25;2.80;;;;;;;;;;6253969;23;20027;-79
2022/10/03 06:54:23;;;;;;;6.25;3.00;;;;;;;;;;6254175;23;20016;-78
2022/10/03 06:56:56;;;;;;;7.47;3.10;;;;;;;;;;6253902;23;20016;-78
2022/10/03 06:59:27;;;;;;;5.20;2.60;;;;;;;;;;6253907;23;20091;-77
2022/10/03 07:02:13;;;;;;;5.80;2.80;;;;;;;;;;6254040;23;20034;-77
2022/10/03 07:04:59;;;;;;;6.70;3.90;;;;;;;;;;6253870;23;20034;-77
2022/10/03 07:07:46;;;;;;;13.80;8.13;;;;;;;;;;6226990;23;20024;-78
2022/10/03 07:10:28;;;;;;;4.88;2.85;;;;;;;;;;6227123;23;20026;-77
2022/10/03 07:13:19;;;;;;;5.75;3.30;;;;;;;;;;6253867;23;20035;-78
2022/10/03 07:16:01;;;;;;;5.88;2.80;;;;;;;;;;6168700;23;20455;-78
2022/10/03 07:19:07;;;;;;;6.80;2.80;;;;;;;;;;6247099;23;20016;-78
2022/10/03 07:21:35;;;;;;;7.70;3.00;;;;;;;;;;6247183;23;20377;-78
2022/10/03 07:24:22;;;;;;;5.45;3.00;;;;;;;;;;6246920;23;20019;-77
2022/10/03 07:26:56;;;;;;;4.22;2.42;;;;;;;;;;6246909;23;20016;-79
2022/10/03 07:29:41;;;;;;;7.15;2.60;;;;;;;;;;6246929;23;20024;-77
2022/10/03 07:32:28;;;;;;;5.75;2.78;;;;;;;;;;6247074;23;20012;-77
2022/10/03 07:35:13;;;;;;;3.92;2.50;;;;;;;;;;6246812;23;20020;-77
2022/10/03 07:40:54;;;;;;;4.78;2.28;;;;;;;;;;6246932;23;20020;-77
2022/10/03 07:43:22;;;;;;;;;;;;;;;;;;6247555;23;20039;-77
2022/10/03 07:46:08;;;;;;;3.75;2.15;;;;;;;;;;6247092;23;20088;-77
2022/10/03 07:48:44;;;;;;;3.20;1.90;;;;;;;;;;6219783;23;20341;-77
2022/10/03 07:51:12;;;;;;;3.30;1.88;;;;;;;;;;6246699;23;20016;-76
2022/10/03 07:53:43;;;;;;;4.38;2.03;;;;;;;;;;6219620;23;20023;-76
2022/10/03 07:56:31;;;;;;;5.50;2.20;;;;;;;;;;6246556;23;20027;-77
2022/10/03 07:59:03;;;;;;;4.63;1.90;;;;;;;;;;6246542;23;20339;-76
2022/10/03 08:01:49;;;;;;;4.60;2.10;;;;;;;;;;6219679;23;20023;-76
2022/10/03 08:04:22;;;;;;;2.67;1.90;;;;;;;;;;6246418;23;20016;-76
2022/10/03 08:06:56;;;;;;;2.25;1.75;;;;;;;;;;6246605;23;20023;-75
2022/10/03 08:09:53;;;;;;;3.63;2.00;;;;;;;;;;6246505;23;20019;-75
2022/10/03 08:12:43;;;;;;;7.38;2.00;;;;;;;;;;6195338;23;20028;-75
2022/10/03 08:15:23;;;;;;;2.67;1.50;;;;;;;;;;6190925;23;20031;-76
2022/10/03 08:17:51;;;;;;;2.50;1.60;;;;;;;;;;6246553;23;20022;-75
2022/10/03 08:20:18;;;;;;;4.00;2.05;;;;;;;;;;6246635;23;20020;-75
2022/10/03 08:22:48;;;;;;;3.97;2.00;;;;;;;;;;6246480;23;20016;-75
2022/10/03 08:25:28;;;;;;;3.15;1.77;;;;;;;;;;6246171;23;20027;-75
2022/10/03 08:28:08;;;;;;;3.10;1.60;;;;;;;;;;6245856;23;20030;-73
2022/10/03 08:31:05;;;;;;;4.18;2.40;;;;;;;;;;6246330;23;20016;-73
2022/10/03 08:33:42;;;;;;;4.88;1.55;;;;;;;;;;6139908;23;20114;-74
2022/10/03 08:36:31;;;;;;;3.22;1.35;;;;;;;;;;6246337;23;20016;-75
2022/10/03 08:39:08;;;;;;;3.28;2.08;;;;;;;;;;6246342;23;20088;-74
2022/10/03 08:41:51;;;;;;;3.17;1.33;;;;;;;;;;6219730;23;20465;-75
2022/10/03 08:44:37;;;;;;;2.80;1.40;;;;;;;;;;6246369;23;20020;-75
2022/10/03 08:47:18;;;;;;;3.17;1.17;;;;;;;;;;6246037;23;20019;-74
2022/10/03 08:50:07;;;;;;;2.47;1.42;;;;;;;;;;6246045;23;20016;-75
2022/10/03 08:52:53;;;;;;;3.83;1.67;;;;;;;;;;6246168;23;20020;-75
2022/10/03 08:55:23;;;;;;;4.20;1.85;;;;;;;;;;6246280;23;20020;-75
2022/10/03 08:58:10;;;;;;;3.42;2.42;;;;;;;;;;6246573;23;20087;-75
2022/10/03 09:00:40;;;;;;;5.60;1.80;;;;;;;;;;6246208;23;20012;-74
2022/10/03 09:03:30;;;;;;;4.57;1.20;;;;;;;;;;6219550;23;20039;-74
2022/10/03 09:06:18;;;;;;;2.20;1.60;;;;;;;;;;6246049;23;20070;-76
2022/10/03 09:09:09;;;;;;;2.17;1.50;;;;;;;;;;6246343;23;20023;-74
2022/10/03 09:11:49;;;;;;;2.53;1.20;;;;;;;;;;6231235;23;20020;-74
2022/10/03 09:14:35;;;;;;;3.83;1.50;;;;;;;;;;6245886;23;20039;-74
2022/10/03 09:17:21;;;;;;;3.15;2.00;;;;;;;;;;6246239;23;20338;-74
2022/10/03 09:20:03;;;;;;;5.95;3.65;;;;;;;;;;6245859;23;20083;-75
2022/10/03 09:22:46;;;;;;;9.68;6.15;;;;;;;;;;6246014;23;20016;-75
2022/10/03 09:25:21;;;;;;;3.72;1.70;;;;;;;;;;6245721;23;20016;-76
2022/10/03 09:28:07;;;;;;;1.45;1.02;;;;;;;;;;6218985;23;20100;-76
2022/10/03 09:30:38;;;;;;;4.68;1.35;;;;;;;;;;6246020;23;20055;-73
2022/10/03 09:33:24;;;;;;;2.67;1.50;;;;;;;;;;6245991;23;20016;-73
2022/10/03 09:35:59;;;;;;;2.70;1.20;;;;;;;;;;6219361;23;20042;-76
2022/10/03 09:38:47;;;;;;;3.72;1.58;;;;;;;;;;6245691;23;20070;-76
2022/10/03 09:41:30;;;;;;;3.28;1.55;;;;;;;;;;6219227;23;20330;-76
2022/10/03 09:44:03;;;;;;;2.92;1.40;;;;;;;;;;6218975;23;20120;-73
2022/10/03 09:46:40;;;;;;;2.10;1.27;;;;;;;;;;6245908;23;20020;-76
2022/10/03 09:49:20;;;;;;;1.80;1.00;;;;;;;;;;6245710;23;20019;-74
2022/10/03 09:51:51;;;;;;;2.28;1.33;;;;;;;;;;6245726;23;20016;-75
2022/10/03 09:54:37;;;;;;;2.45;1.05;;;;;;;;;;6219117;23;20088;-77
2022/10/03 09:57:37;;;;;;;4.80;1.15;;;;;;;;;;6245761;23;20078;-76
2022/10/03 10:00:08;;;;;;;1.88;1.23;;;;;;;;;;6245847;23;20027;-76
2022/10/03 10:02:53;;;;;;;4.00;1.52;;;;;;;;;;6219786;23;20020;-76
2022/10/03 10:05:26;;;;;;;4.22;1.58;;;;;;;;;;6246077;23;20502;-76
2022/10/03 10:07:54;;;;;;;1.23;0.80;;;;;;;;;;6246050;23;20020;-76
2022/10/03 10:10:21;;;;;;;3.92;2.40;;;;;;;;;;6219017;23;20020;-77
2022/10/03 10:13:07;;;;;;;3.63;1.50;;;;;;;;;;6245539;23;20074;-76
2022/10/03 10:15:50;;;;;;;3.25;1.52;;;;;;;;;;6219112;23;20020;-77
2022/10/03 10:18:38;;;;;;;2.30;1.15;;;;;;;;;;6245718;23;20020;-74
2022/10/03 10:21:18;;;;;;;1.52;0.90;;;;;;;;;;6245580;23;20012;-77
2022/10/03 10:23:51;;;;;;;1.33;1.15;;;;;;;;;;6219131;23;20020;-75
2022/10/03 10:26:37;;;;;;;2.33;1.38;;;;;;;;;;6215261;23;20012;-76
2022/10/03 10:29:16;;;;;;;1.67;0.95;;;;;;;;;;6215271;23;20022;-74
2022/10/03 10:32:03;;;;;;;3.03;1.20;;;;;;;;;;6215274;23;20092;-76
2022/10/03 10:34:40;;;;;;;1.40;0.80;;;;;;;;;;6215353;23;20111;-77
2022/10/03 10:37:28;;;;;;;2.00;1.20;;;;;;;;;;6215496;23;20033;-76
2022/10/03 10:40:08;;;;;;;1.10;0.95;;;;;;;;;;6215243;23;20031;-77
2022/10/03 10:43:07;;;;;;;2.00;0.98;;;;;;;;;;6215125;23;20024;-76
2022/10/03 10:45:47;;;;;;;1.02;0.77;;;;;;;;;;6215174;23;20021;-77
2022/10/03 10:48:40;;;;;;;1.85;0.80;;;;;;;;;;6215177;23;20019;-75
2022/10/03 10:51:43;;;;;;;1.48;0.90;;;;;;;;;;6171717;23;20055;-76
2022/10/03 10:54:11;;;;;;;1.77;1.45;;;;;;;;;;6095646;23;20026;-73
2022/10/03 10:56:56;;;;;;;2.90;1.55;;;;;;;;;;6194151;23;20074;-75
2022/10/03 10:59:38;;;;;;;1.02;0.73;;;;;;;;;;6216999;23;20027;-75
2022/10/03 11:02:25;;;;;;;2.72;1.30;;;;;;;;;;6217009;23;20021;-76
2022/10/03 11:05:12;;;;;;;3.45;1.30;;;;;;;;;;6216944;23;20071;-76
2022/10/03 11:08:02;;;;;;;1.35;1.23;;;;;;;;;;6216824;23;20115;-77
2022/10/03 11:10:38;;;;;;;2.15;0.90;;;;;;;;;;6190715;23;20036;-77
2022/10/03 11:13:06;;;;;;;1.98;1.38;;;;;;;;;;6216794;23;20342;-75
2022/10/03 11:15:52;;;;;;;1.45;1.00;;;;;;;;;;6217071;23;20059;-75
2022/10/03 11:18:19;;;;;;;1.95;0.80;;;;;;;;;;6216803;23;20023;-75
2022/10/03 11:20:50;;;;;;;2.17;1.00;;;;;;;;;;6216780;23;20036;-74
2022/10/03 11:23:23;;;;;;;1.98;1.33;;;;;;;;;;6216739;23;20023;-73
2022/10/03 11:26:06;;;;;;;1.33;0.90;;;;;;;;;;6241239;23;20397;-75
2022/10/03 11:28:43;;;;;;;2.80;2.28;;;;;;;;;;6247089;23;20024;-73
2022/10/03 11:31:26;;;;;;;3.70;2.45;;;;;;;;;;6246948;23;20019;-74
2022/10/03 11:34:03;;;;;;;3.53;2.03;;;;;;;;;;6246591;23;20040;-75
2022/10/03 11:36:30;;;;;;;3.78;1.35;;;;;;;;;;6246652;23;20020;-75
2022/10/03 11:39:27;;;;;;;2.53;1.60;;;;;;;;;;6246956;23;20019;-72
2022/10/03 11:42:13;;;;;;;1.60;1.50;;;;;;;;;;6140655;23;20022;-75
2022/10/03 11:44:44;;;;;;;3.00;1.20;;;;;;;;;;6247109;23;20012;-76
2022/10/03 11:47:41;;;;;;;3.00;1.20;;;;;;;;;;6247106;23;20020;-72
2022/10/03 11:50:11;;;;;;;2.45;1.55;;;;;;;;;;6221900;23;20020;-74
2022/10/03 11:52:48;;;;;;;3.95;1.77;;;;;;;;;;6246855;23;20020;-73
2022/10/03 11:55:15;;;;;;;3.20;1.10;;;;;;;;;;6246543;23;20016;-76
2022/10/03 11:57:45;;;;;;;1.90;1.00;;;;;;;;;;6246698;23;20012;-74
2022/10/03 12:00:18;;;;;;;1.88;0.95;;;;;;;;;;6220273;23;20013;-77
2022/10/03 12:02:46;;;;;;;2.28;0.90;;;;;;;;;;6246543;23;20016;-76
2022/10/03 12:05:16;;;;;;;1.30;0.82;;;;;;;;;;6220761;23;20016;-74
2022/10/03 12:10:29;;;;;;;1.25;1.13;;;;;;;;;;6246520;23;20519;-76
2022/10/03 12:12:57;;;;;;;13.55;9.27;;;;;;;;;;6246418;23;20020;-74
2022/10/03 12:15:37;;;;;;;4.07;2.53;;;;;;;;;;6246298;23;20452;-74
2022/10/03 12:18:07;;;;;;;1.50;1.23;;;;;;;;;;6219548;23;20016;-75
2022/10/03 12:21:05;;;;;;;1.30;1.00;;;;;;;;;;6220300;23;20062;-74
2022/10/03 12:23:45;;;;;;;2.70;1.20;;;;;;;;;;6140917;23;20024;-74
2022/10/03 12:26:32;;;;;;;1.00;0.75;;;;;;;;;;6246279;23;20020;-73
2022/10/03 12:29:02;;;;;;;1.17;1.02;;;;;;;;;;6186186;23;20016;-74
2022/10/03 12:31:37;;;;;;;2.75;0.98;;;;;;;;;;6219801;23;20323;-74
2022/10/03 12:34:08;;;;;;;4.32;0.90;;;;;;;;;;6246324;23;20070;-74
2022/10/03 12:36:35;;;;;;;0.70;0.60;;;;;;;;;;6246270;23;20016;-74
2022/10/03 12:39:03;;;;;;;2.00;0.60;;;;;;;;;;6219842;23;20016;-75
2022/10/03 12:41:49;;;;;;;1.23;0.60;;;;;;;;;;6219467;23;20020;-74
2022/10/03 12:44:29;;;;;;;1.52;1.13;;;;;;;;;;6246283;23;20034;-73
2022/10/03 12:46:56;;;;;;;2.30;1.05;;;;;;;;;;6246197;23;20454;-73
2022/10/03 12:49:35;;;;;;;1.52;1.17;;;;;;;;;;6246415;23;20339;-74
2022/10/03 12:52:08;;;;;;;3.22;0.90;;;;;;;;;;6246071;23;20315;-74
2022/10/03 12:54:55;;;;;;;1.40;0.80;;;;;;;;;;6246047;23;20442;-74
2022/10/03 12:57:22;;;;;;;3.85;1.13;;;;;;;;;;6246088;23;20012;-74
2022/10/03 12:59:59;;;;;;;2.58;1.00;;;;;;;;;;6246050;23;20047;-74
2022/10/03 13:02:34;;;;;;;2.95;1.13;;;;;;;;;;6246161;23;20446;-74
2022/10/03 13:05:21;;;;;;;2.20;1.48;;;;;;;;;;6219190;23;20027;-74
2022/10/03 13:07:55;;;;;;;2.17;1.60;;;;;;;;;;6246112;23;20016;-77
2022/10/03 13:10:24;;;;;;;1.85;1.40;;;;;;;;;;6219136;23;20472;-75
2022/10/03 13:12:59;;;;;;;2.28;1.67;;;;;;;;;;6245608;23;20019;-74
2022/10/03 13:15:46;;;;;;;2.20;1.10;;;;;;;;;;6245751;23;20016;-75
2022/10/03 13:18:17;;;;;;;1.98;1.30;;;;;;;;;;6245694;23;20039;-74
2022/10/03 13:20:58;;;;;;;0.90;0.73;;;;;;;;;;6245775;23;20016;-75
2022/10/03 13:23:46;;;;;;;0.93;0.70;;;;;;;;;;6245649;23;20039;-74
2022/10/03 13:26:34;;;;;;;1.40;1.25;;;;;;;;;;6245007;23;20094;-74
2022/10/03 13:29:22;;;;;;;2.17;1.13;;;;;;;;;;6245714;23;20023;-75
2022/10/03 13:32:08;;;;;;;3.58;2.53;;;;;;;;;;6218678;23;20027;-75
2022/10/03 13:34:54;;;;;;;1.42;1.08;;;;;;;;;;6245357;23;20323;-77
2022/10/03 13:37:30;;;;;;;2.67;1.40;;;;;;;;;;6245804;23;20012;-75
2022/10/03 13:40:04;;;;;;;3.33;1.20;;;;;;;;;;6245604;23;20438;-76
2022/10/03 13:42:32;;;;;;;2.45;1.17;;;;;;;;;;6245590;23;20083;-74
2022/10/03 13:45:03;;;;;;;3.17;2.03;;;;;;;;;;6245310;23;20016;-74
2022/10/03 13:47:33;;;;;;;4.53;1.50;;;;;;;;;;6245460;23;20020;-72
2022/10/03 13:50:02;;;;;;;3.55;1.50;;;;;;;;;;6245302;23;20022;-74
2022/10/03 13:52:29;;;;;;;1.52;1.23;;;;;;;;;;6245337;23;20016;-74
2022/10/03 13:55:07;;;;;;;3.60;1.40;;;;;;;;;;6218344;23;20020;-74
2022/10/03 13:57:38;;;;;;;2.78;1.30;;;;;;;;;;6218275;23;20023;-77
2022/10/03 14:00:07;;;;;;;1.67;0.90;;;;;;;;;;6245406;23;20442;-71
2022/10/03 14:02:46;;;;;;;2.15;1.17;;;;;;;;;;6245334;23;20378;-72
2022/10/03 14:05:24;;;;;;;1.33;0.70;;;;;;;;;;6245211;23;20040;-72
2022/10/03 14:08:03;;;;;;;3.55;0.93;;;;;;;;;;6245102;23;20471;-72
2022/10/03 14:10:40;;;;;;;1.17;1.08;;;;;;;;;;6245155;23;20012;-72
2022/10/03 14:13:11;;;;;;;1.85;0.90;;;;;;;;;;6245124;23;20020;-73
2022/10/03 14:15:45;;;;;;;3.80;1.40;;;;;;;;;;6245042;23;20116;-72
2022/10/03 14:18:32;;;;;;;2.88;0.70;;;;;;;;;;6245409;23;20405;-73
2022/10/03 14:21:14;;;;;;;1.70;0.88;;;;;;;;;;6245595;23;20043;-72
2022/10/03 14:23:45;;;;;;;2.45;1.00;;;;;;;;;;6245175;23;20020;-73
2022/10/03 14:26:17;;;;;;;2.78;1.15;;;;;;;;;;6246344;23;20087;-71
2022/10/03 14:28:57;;;;;;;2.55;1.50;;;;;;;;;;6244903;23;20035;-73
2022/10/03 14:31:44;;;;;;;1.33;0.88;;;;;;;;;;6219546;23;20461;-73
2022/10/03 14:34:22;;;;;;;3.13;1.35;;;;;;;;;;6245837;23;20062;-73
2022/10/03 14:37:05;;;;;;;3.47;1.65;;;;;;;;;;6246947;23;20104;-72
2022/10/03 14:39:55;;;;;;;2.38;1.30;;;;;;;;;;6246499;23;20016;-72
2022/10/03 14:43:01;;;;;;;1.10;1.00;;;;;;;;;;6246562;23;20023;-72
2022/10/03 14:45:36;;;;;;;1.95;1.15;;;;;;;;;;6246838;23;20016;-72
2022/10/03 14:48:12;;;;;;;1.35;1.13;;;;;;;;;;6246602;23;20399;-73
2022/10/03 14:50:41;;;;;;;4.40;1.10;;;;;;;;;;6219979;23;20063;-72
2022/10/03 14:53:19;;;;;;;3.30;1.33;;;;;;;;;;6246715;23;20023;-72
2022/10/03 14:56:07;;;;;;;2.20;1.25;;;;;;;;;;6246776;23;20023;-73
2022/10/03 14:58:36;;;;;;;2.78;1.17;;;;;;;;;;6246281;23;20023;-73
2022/10/03 15:01:13;;;;;;;2.75;1.40;;;;;;;;;;6246617;23;20047;-73
2022/10/03 15:04:00;;;;;;;2.20;1.55;;;;;;;;;;6246414;23;20022;-73
2022/10/03 15:06:33;;;;;;;3.15;1.60;;;;;;;;;;6246552;23;20450;-72
2022/10/03 15:09:03;;;;;;;2.63;1.83;;;;;;;;;;6246348;23;20030;-72
2022/10/03 15:11:35;;;;;;;1.40;1.20;;;;;;;;;;6194659;23;20102;-72
2022/10/03 15:14:05;;;;;;;4.40;1.27;;;;;;;;;;6219731;23;20020;-72
2022/10/03 15:16:36;;;;;;;1.83;1.20;;;;;;;;;;6246048;23;20016;-72
2022/10/03 15:19:06;;;;;;;4.03;2.30;;;;;;;;;;6246255;23;20020;-73
2022/10/03 15:21:34;;;;;;;3.40;1.70;;;;;;;;;;6246168;23;20043;-71
2022/10/03 15:24:03;;;;;;;3.83;1.92;;;;;;;;;;6245180;23;20450;-73
2022/10/03 15:26:34;;;;;;;6.93;4.65;;;;;;;;;;6219795;23;20016;-72
2022/10/03 15:29:04;;;;;;;3.67;2.35;;;;;;;;;;6246171;23;20023;-72
2022/10/03 15:31:32;;;;;;;6.60;1.98;;;;;;;;;;6246371;23;20020;-72
2022/10/03 15:34:01;;;;;;;4.55;2.05;;;;;;;;;;6246545;23;20020;-72
2022/10/03 15:36:32;;;;;;;5.13;3.22;;;;;;;;;;6245752;23;20016;-72
2022/10/03 15:39:01;;;;;;;12.40;8.63;;;;;;;;;;6246261;23;20035;-72
2022/10/03 15:41:35;;;;;;;2.70;1.95;;;;;;;;;;6246317;23;20083;-72
2022/10/03 15:44:12;;;;;;;3.83;2.43;;;;;;;;;;6246242;23;20012;-72
2022/10/03 15:46:45;;;;;;;4.88;2.53;;;;;;;;;;6246243;23;20241;-73
2022/10/03 15:49:31;;;;;;;4.55;1.80;;;;;;;;;;6219370;23;20095;-72
2022/10/03 15:52:06;;;;;;;5.13;3.10;;;;;;;;;;6246176;23;20472;-71
2022/10/03 15:54:37;;;;;;;;;;;;;;;;;;6246881;23;20016;-72
2022/10/03 15:57:07;;;;;;;7.00;3.15;;;;;;;;;;6246425;23;19915;-72
2022/10/03 15:59:35;;;;;;;4.25;2.65;;;;;;;;;;6219425;23;20074;-72
2022/10/03 16:02:11;;;;;;;5.18;2.15;;;;;;;;;;6245830;23;20012;-71
2022/10/03 16:04:40;;;;;;;2.85;2.22;;;;;;;;;;6245417;23;20043;-71
2022/10/03 16:07:37;;;;;;;5.25;2.45;;;;;;;;;;6245275;23;20016;-73
2022/10/03 16:10:23;;;;;;;2.47;1.90;;;;;;;;;;6220172;23;20039;-72
2022/10/03 16:13:11;;;;;;;4.93;2.28;;;;;;;;;;6245519;23;20020;-72
2022/10/03 16:15:42;;;;;;;3.95;2.20;;;;;;;;;;6245372;23;20504;-72
2022/10/03 16:18:19;;;;;;;4.82;2.67;;;;;;;;;;6245696;23;20070;-72
2022/10/03 16:20:54;;;;;;;6.35;3.70;;;;;;;;;;6245489;23;20502;-73
2022/10/03 16:23:24;;;;;;;6.10;2.47;;;;;;;;;;6243947;23;20020;-72
2022/10/03 16:25:55;;;;;;;3.20;1.70;;;;;;;;;;6245300;23;20016;-73
2022/10/03 16:28:48;;;;;;;2.83;1.63;;;;;;;;;;6244903;23;20062;-72